createdAt,value
2022-12-27T00:00:24.989Z,7.00
2022-12-27T00:02:51.677Z,6.75
2022-12-27T00:05:18.387Z,6.91
2022-12-27T00:07:45.001Z,6.81
2022-12-27T00:10:11.728Z,6.84
2022-12-27T00:12:38.265Z,6.70
2022-12-27T00:15:05.079Z,6.87
2022-12-27T00:17:32.093Z,6.81
2022-12-27T00:19:58.723Z,6.67
2022-12-27T00:22:25.248Z,6.73
2022-12-27T00:24:51.793Z,6.71
2022-12-27T00:27:18.330Z,6.59
2022-12-27T00:29:45.105Z,6.52
2022-12-27T00:32:14.226Z,6.46
2022-12-27T00:34:43.435Z,6.44
2022-12-27T00:37:09.957Z,6.47
2022-12-27T00:39:36.832Z,6.35
2022-12-27T00:42:03.868Z,6.36
2022-12-27T00:44:30.487Z,6.34
2022-12-27T00:46:58.363Z,6.20
2022-12-27T00:49:24.913Z,6.08
2022-12-27T00:51:51.602Z,6.17
2022-12-27T00:54:18.150Z,5.93
2022-12-27T00:56:48.346Z,6.19
2022-12-27T00:59:14.883Z,5.80
2022-12-27T01:01:41.673Z,5.73
2022-12-27T01:04:08.576Z,5.88
2022-12-27T01:06:35.174Z,5.86
2022-12-27T01:09:01.976Z,5.87
2022-12-27T01:11:28.961Z,5.71
2022-12-27T01:13:56.526Z,5.81
2022-12-27T01:16:23.368Z,5.72
2022-12-27T01:18:50.060Z,5.61
2022-12-27T01:21:17.415Z,5.79
2022-12-27T01:23:44.069Z,5.71
2022-12-27T01:26:11.970Z,5.50
2022-12-27T01:28:39.197Z,5.53
2022-12-27T01:31:09.393Z,5.49
2022-12-27T01:33:36.083Z,5.54
2022-12-27T01:36:09.758Z,5.39
2022-12-27T01:38:36.309Z,5.35
2022-12-27T01:41:22.823Z,5.32
2022-12-27T01:43:49.353Z,5.26
2022-12-27T01:46:15.988Z,5.07
2022-12-27T01:48:42.536Z,5.02
2022-12-27T01:51:09.087Z,4.94
2022-12-27T01:53:37.662Z,4.98
2022-12-27T01:56:05.390Z,4.98
2022-12-27T01:58:42.548Z,4.86
2022-12-27T02:01:16.426Z,4.78
2022-12-27T02:04:03.244Z,4.68
2022-12-27T02:06:29.756Z,4.58
2022-12-27T02:09:03.421Z,4.56
2022-12-27T02:11:49.659Z,4.53
2022-12-27T02:14:16.566Z,4.48
2022-12-27T02:16:43.128Z,4.29
2022-12-27T02:19:17.691Z,4.21
2022-12-27T02:21:44.144Z,4.13
2022-12-27T02:24:43.085Z,4.19
2022-12-27T02:27:12.493Z,4.22
2022-12-27T02:29:41.788Z,4.37
2022-12-27T02:32:20.819Z,4.28
2022-12-27T02:35:02.283Z,4.17
2022-12-27T02:37:29.571Z,4.21
2022-12-27T02:39:56.109Z,4.33
2022-12-27T02:42:41.389Z,4.29
2022-12-27T02:45:32.583Z,4.21
2022-12-27T02:48:34.661Z,4.13
2022-12-27T02:51:24.510Z,4.13
2022-12-27T02:53:50.969Z,4.02
2022-12-27T02:56:39.466Z,3.95
2022-12-27T02:59:14.496Z,3.92
2022-12-27T03:02:37.960Z,3.95
2022-12-27T03:05:07.463Z,3.87
2022-12-27T03:07:46.039Z,3.85
2022-12-27T03:10:42.815Z,3.78
2022-12-27T03:13:28.370Z,3.84
2022-12-27T03:16:04.050Z,3.82
2022-12-27T03:18:42.725Z,3.83
2022-12-27T03:21:28.749Z,3.85
2022-12-27T03:24:14.086Z,3.94
2022-12-27T03:26:42.546Z,3.80
2022-12-27T03:29:28.782Z,3.74
2022-12-27T03:32:14.580Z,3.75
2022-12-27T03:34:42.026Z,3.63
2022-12-27T03:37:33.482Z,3.57
2022-12-27T03:40:06.338Z,3.46
2022-12-27T03:42:52.361Z,3.49
2022-12-27T03:45:20.534Z,3.46
2022-12-27T03:47:50.159Z,3.34
2022-12-27T03:50:25.266Z,3.41
2022-12-27T03:52:53.637Z,3.39
2022-12-27T03:55:20.417Z,3.42
2022-12-27T03:57:46.909Z,3.54
2022-12-27T04:00:13.781Z,3.66
2022-12-27T04:02:40.500Z,3.66
2022-12-27T04:05:07.408Z,3.49
2022-12-27T04:07:33.912Z,3.46
2022-12-27T04:10:19.206Z,3.43
2022-12-27T04:13:04.505Z,3.34
2022-12-27T04:15:49.964Z,3.33
2022-12-27T04:18:35.463Z,3.36
2022-12-27T04:21:20.453Z,3.52
2022-12-27T04:24:05.648Z,3.60
2022-12-27T04:26:50.999Z,3.71
2022-12-27T04:29:36.350Z,3.75
2022-12-27T04:32:21.687Z,3.73
2022-12-27T04:34:48.217Z,3.79
2022-12-27T04:37:15.835Z,3.74
2022-12-27T04:39:42.701Z,3.69
2022-12-27T04:42:28.255Z,3.62
2022-12-27T04:45:15.605Z,3.51
2022-12-27T04:48:01.213Z,3.54
2022-12-27T04:50:50.340Z,3.47
2022-12-27T04:53:39.130Z,3.34
2022-12-27T04:56:06.080Z,3.26
2022-12-27T04:58:32.736Z,3.17
2022-12-27T05:01:18.842Z,3.28
2022-12-27T05:03:45.897Z,3.17
2022-12-27T05:06:12.454Z,3.15
2022-12-27T05:08:57.855Z,3.12
2022-12-27T05:11:42.812Z,3.06
2022-12-27T05:14:10.865Z,3.06
2022-12-27T05:16:39.137Z,2.99
2022-12-27T05:19:06.126Z,3.11
2022-12-27T05:21:36.898Z,3.29
2022-12-27T05:24:22.113Z,3.20
2022-12-27T05:26:48.717Z,3.18
2022-12-27T05:29:15.390Z,3.11
2022-12-27T05:31:41.925Z,3.11
2022-12-27T05:34:08.453Z,3.14
2022-12-27T05:36:34.994Z,3.15
2022-12-27T05:39:01.519Z,3.35
2022-12-27T05:41:28.154Z,3.32
2022-12-27T05:43:54.744Z,3.35
2022-12-27T05:46:21.706Z,3.34
2022-12-27T05:48:48.346Z,3.38
2022-12-27T05:51:16.065Z,3.36
2022-12-27T05:53:42.678Z,3.45
2022-12-27T05:56:09.433Z,3.47
2022-12-27T05:58:35.949Z,3.42
2022-12-27T06:01:07.177Z,3.45
2022-12-27T06:03:33.755Z,3.45
2022-12-27T06:06:01.840Z,3.41
2022-12-27T06:08:28.742Z,3.38
2022-12-27T06:11:05.513Z,3.15
2022-12-27T06:13:32.078Z,3.13
2022-12-27T06:16:02.162Z,3.14
2022-12-27T06:18:29.041Z,3.17
2022-12-27T06:20:55.572Z,3.18
2022-12-27T06:23:22.088Z,3.32
2022-12-27T06:25:48.674Z,3.35
2022-12-27T06:28:15.204Z,3.38
2022-12-27T06:30:41.744Z,3.43
2022-12-27T06:33:08.237Z,3.43
2022-12-27T06:35:35.124Z,3.35
2022-12-27T06:38:01.714Z,3.33
2022-12-27T06:40:28.213Z,3.39
2022-12-27T06:42:54.745Z,3.40
2022-12-27T06:45:21.484Z,3.33
2022-12-27T06:47:48.009Z,3.26
2022-12-27T06:50:14.524Z,3.22
2022-12-27T06:52:41.047Z,3.29
2022-12-27T06:55:07.781Z,3.23
2022-12-27T06:57:34.343Z,3.24
2022-12-27T07:00:00.918Z,3.28
2022-12-27T07:02:27.608Z,3.39
2022-12-27T07:04:54.351Z,3.40
2022-12-27T07:07:20.982Z,3.47
2022-12-27T07:09:47.624Z,3.38
2022-12-27T07:12:14.173Z,3.38
2022-12-27T07:14:40.743Z,3.43
2022-12-27T07:17:07.418Z,3.44
2022-12-27T07:19:34.024Z,3.43
2022-12-27T07:22:00.519Z,3.45
2022-12-27T07:24:27.046Z,3.42
2022-12-27T07:26:53.991Z,3.44
2022-12-27T07:29:20.811Z,3.41
2022-12-27T07:31:47.586Z,3.48
2022-12-27T07:34:14.190Z,3.52
2022-12-27T07:36:41.127Z,3.48
2022-12-27T07:39:07.907Z,3.55
2022-12-27T07:41:35.714Z,3.57
2022-12-27T07:44:02.339Z,3.57
2022-12-27T07:46:28.989Z,3.67
2022-12-27T07:48:56.142Z,3.72
2022-12-27T07:51:22.988Z,3.80
2022-12-27T07:53:50.085Z,3.95
2022-12-27T07:56:25.189Z,4.03
2022-12-27T07:58:52.828Z,4.02
2022-12-27T08:01:20.022Z,4.13
2022-12-27T08:03:47.372Z,4.24
2022-12-27T08:06:32.477Z,4.31
2022-12-27T08:08:59.497Z,4.42
2022-12-27T08:11:30.229Z,4.44
2022-12-27T08:13:56.761Z,4.42
2022-12-27T08:16:23.855Z,4.35
2022-12-27T08:18:50.491Z,4.52
2022-12-27T08:21:17.058Z,4.54
2022-12-27T08:23:43.759Z,4.58
2022-12-27T08:26:10.348Z,4.61
2022-12-27T08:28:36.909Z,4.57
2022-12-27T08:31:05.485Z,4.54
2022-12-27T08:33:32.087Z,4.71
2022-12-27T08:35:59.015Z,4.85
2022-12-27T08:38:25.569Z,4.92
2022-12-27T08:40:52.068Z,5.02
2022-12-27T08:43:18.667Z,4.98
2022-12-27T08:45:45.244Z,5.06
2022-12-27T08:48:11.899Z,5.18
2022-12-27T08:50:38.608Z,5.22
2022-12-27T08:53:06.355Z,5.26
2022-12-27T08:55:33.444Z,5.27
2022-12-27T08:58:06.128Z,5.29
2022-12-27T09:00:36.708Z,5.28
2022-12-27T09:03:03.523Z,5.36
2022-12-27T09:05:30.343Z,5.36
2022-12-27T09:07:57.941Z,5.39
2022-12-27T09:10:24.587Z,5.22
2022-12-27T09:12:51.153Z,5.39
2022-12-27T09:15:17.778Z,5.48
2022-12-27T09:17:44.317Z,5.66
2022-12-27T09:20:12.507Z,5.70
2022-12-27T09:22:39.330Z,5.70
2022-12-27T09:25:06.129Z,5.70
2022-12-27T09:27:33.788Z,5.65
2022-12-27T09:30:00.815Z,5.70
2022-12-27T09:32:28.582Z,5.76
2022-12-27T09:34:59.149Z,6.04
2022-12-27T09:37:28.717Z,6.04
2022-12-27T09:39:57.227Z,6.03
2022-12-27T09:42:49.836Z,6.08
2022-12-27T09:45:16.923Z,6.18
2022-12-27T09:47:48.384Z,6.36
2022-12-27T09:50:26.090Z,6.51
2022-12-27T09:52:58.740Z,6.56
2022-12-27T09:55:45.680Z,6.62
2022-12-27T09:58:24.278Z,6.84
2022-12-27T10:00:51.160Z,6.96
2022-12-27T10:03:19.866Z,7.11
2022-12-27T10:05:46.711Z,7.08
2022-12-27T10:08:21.505Z,6.88
2022-12-27T10:11:34.382Z,6.92
2022-12-27T10:14:20.820Z,7.01
2022-12-27T10:16:53.802Z,6.92
2022-12-27T10:19:52.904Z,6.81
2022-12-27T10:22:25.280Z,7.00
2022-12-27T10:24:56.625Z,7.02
2022-12-27T10:27:24.411Z,7.15
2022-12-27T10:29:58.012Z,7.22
2022-12-27T10:32:30.544Z,7.34
2022-12-27T10:34:58.099Z,7.43
2022-12-27T10:37:24.833Z,7.40
2022-12-27T10:39:54.156Z,7.52
2022-12-27T10:42:59.664Z,7.53
2022-12-27T10:45:42.633Z,7.69
2022-12-27T10:48:15.107Z,7.66
2022-12-27T10:50:47.484Z,7.60
2022-12-27T10:53:32.952Z,7.56
2022-12-27T10:56:18.285Z,7.63
2022-12-27T10:58:54.722Z,7.52
2022-12-27T11:01:23.468Z,7.59
2022-12-27T11:03:50.584Z,7.61
2022-12-27T11:06:24.881Z,7.64
2022-12-27T11:08:52.457Z,7.60
2022-12-27T11:11:23.092Z,7.77
2022-12-27T11:13:50.068Z,7.78
2022-12-27T11:16:28.445Z,7.83
2022-12-27T11:18:55.980Z,7.83
2022-12-27T11:21:27.673Z,7.70
2022-12-27T11:24:01.196Z,7.80
2022-12-27T11:26:28.637Z,7.84
2022-12-27T11:28:56.184Z,8.11
2022-12-27T11:31:44.739Z,7.99
2022-12-27T11:34:17.868Z,8.05
2022-12-27T11:36:45.962Z,7.94
2022-12-27T11:39:33.540Z,7.80
2022-12-27T11:42:00.152Z,8.07
2022-12-27T11:44:30.249Z,8.04
2022-12-27T11:46:59.575Z,7.94
2022-12-27T11:49:32.012Z,7.75
2022-12-27T11:51:59.217Z,7.73
2022-12-27T11:54:46.495Z,7.70
2022-12-27T11:57:18.730Z,7.84
2022-12-27T11:59:56.758Z,7.77
2022-12-27T12:02:26.384Z,7.90
2022-12-27T12:04:55.709Z,7.93
2022-12-27T12:07:41.860Z,8.10
2022-12-27T12:10:11.484Z,8.27
2022-12-27T12:12:51.126Z,8.42
2022-12-27T12:15:30.343Z,8.77
2022-12-27T12:17:59.553Z,8.87
2022-12-27T12:20:36.757Z,8.81
2022-12-27T12:23:07.103Z,8.86
2022-12-27T12:26:06.796Z,9.13
2022-12-27T12:29:01.250Z,9.02
2022-12-27T12:31:29.480Z,8.97
2022-12-27T12:34:08.888Z,8.89
2022-12-27T12:36:52.833Z,8.71
2022-12-27T12:39:28.893Z,8.93
2022-12-27T12:41:55.606Z,9.11
2022-12-27T12:44:41.275Z,9.13
2022-12-27T12:47:08.719Z,9.02
2022-12-27T12:49:45.743Z,9.16
2022-12-27T12:52:31.571Z,9.29
2022-12-27T12:55:16.951Z,9.16
2022-12-27T12:58:02.238Z,9.06
2022-12-27T13:00:36.448Z,9.18
2022-12-27T13:03:21.783Z,9.33
2022-12-27T13:06:01.026Z,9.41
2022-12-27T13:08:49.374Z,9.22
2022-12-27T13:11:22.613Z,9.26
2022-12-27T13:13:52.237Z,9.31
2022-12-27T13:16:37.711Z,9.28
2022-12-27T13:19:24.187Z,9.44
2022-12-27T13:21:59.004Z,9.38
2022-12-27T13:24:30.129Z,9.26
2022-12-27T13:27:06.031Z,9.29
2022-12-27T13:29:42.141Z,9.18
2022-12-27T13:32:28.077Z,9.01
2022-12-27T13:34:58.855Z,9.01
2022-12-27T13:37:39.270Z,8.95
2022-12-27T13:40:06.443Z,8.99
2022-12-27T13:42:39.713Z,8.95
2022-12-27T13:45:22.157Z,8.98
2022-12-27T13:47:51.662Z,8.99
2022-12-27T13:50:19.745Z,8.79
2022-12-27T13:53:12.487Z,8.71
2022-12-27T13:55:41.951Z,8.77
2022-12-27T13:58:27.585Z,8.67
2022-12-27T14:01:03.034Z,8.63
2022-12-27T14:03:29.640Z,8.57
2022-12-27T14:09:15.912Z,8.15
2022-12-27T14:11:45.624Z,8.26
2022-12-27T14:14:18.243Z,8.17
2022-12-27T14:16:47.881Z,8.23
2022-12-27T14:19:32.992Z,8.34
2022-12-27T14:22:11.476Z,8.25
2022-12-27T14:24:56.415Z,8.40
2022-12-27T14:27:25.806Z,8.46
2022-12-27T14:30:04.799Z,8.47
2022-12-27T14:32:41.943Z,8.43
2022-12-27T14:35:20.813Z,8.38
2022-12-27T14:37:53.201Z,8.30
2022-12-27T14:40:38.329Z,8.54
2022-12-27T14:43:07.619Z,8.66
2022-12-27T14:45:36.977Z,8.58
2022-12-27T14:48:03.467Z,8.57
2022-12-27T14:50:55.665Z,8.48
2022-12-27T14:53:37.559Z,8.42
2022-12-27T14:56:22.878Z,8.40
2022-12-27T14:58:49.346Z,8.27
2022-12-27T15:01:15.921Z,8.21
2022-12-27T15:03:49.966Z,8.12
2022-12-27T15:06:16.757Z,8.13
2022-12-27T15:08:43.260Z,7.96
2022-12-27T15:11:31.292Z,8.06
2022-12-27T15:14:17.681Z,8.24
2022-12-27T15:16:47.203Z,8.25
2022-12-27T15:19:13.829Z,8.20
2022-12-27T15:21:41.892Z,8.13
2022-12-27T15:24:11.710Z,8.08
2022-12-27T15:26:47.364Z,7.96
2022-12-27T15:29:25.560Z,7.89
2022-12-27T15:32:11.772Z,7.84
2022-12-27T15:34:48.621Z,7.71
2022-12-27T15:37:34.005Z,7.56
2022-12-27T15:40:00.566Z,7.46
2022-12-27T15:42:36.535Z,7.25
2022-12-27T15:45:07.726Z,7.08
2022-12-27T15:47:46.774Z,6.84
2022-12-27T15:50:19.146Z,6.75
2022-12-27T15:53:06.546Z,6.79
2022-12-27T15:55:51.223Z,6.68
2022-12-27T15:58:20.872Z,6.54
2022-12-27T16:01:07.306Z,6.51
2022-12-27T16:03:40.000Z,6.50
2022-12-27T16:06:07.857Z,6.52
2022-12-27T16:08:43.308Z,6.53
2022-12-27T16:11:14.048Z,6.36
2022-12-27T16:13:50.214Z,6.43
2022-12-27T16:16:29.155Z,6.31
2022-12-27T16:19:06.703Z,6.24
2022-12-27T16:21:36.951Z,6.04
2022-12-27T16:24:04.807Z,6.15
2022-12-27T16:26:32.291Z,6.08
2022-12-27T16:29:02.036Z,6.00
2022-12-27T16:31:29.961Z,5.86
2022-12-27T16:34:00.487Z,5.99
2022-12-27T16:36:30.894Z,5.88
2022-12-27T16:39:00.289Z,5.86
2022-12-27T16:41:29.951Z,5.73
2022-12-27T16:44:02.183Z,5.65
2022-12-27T16:46:44.324Z,5.56
2022-12-27T16:49:29.729Z,5.71
2022-12-27T16:52:22.446Z,5.66
2022-12-27T16:54:52.377Z,5.67
2022-12-27T16:57:29.545Z,5.56
2022-12-27T16:59:59.153Z,5.59
2022-12-27T17:02:40.860Z,5.55
2022-12-27T17:05:16.664Z,5.54
2022-12-27T17:07:44.792Z,5.56
2022-12-27T17:10:34.934Z,5.50
2022-12-27T17:13:20.161Z,5.44
2022-12-27T17:16:04.792Z,5.38
2022-12-27T17:18:35.853Z,5.37
2022-12-27T17:21:16.146Z,5.22
2022-12-27T17:23:43.608Z,5.18
2022-12-27T17:26:19.298Z,5.02
2022-12-27T17:28:49.741Z,5.09
2022-12-27T17:31:19.062Z,4.96
2022-12-27T17:33:53.683Z,4.76
2022-12-27T17:36:23.376Z,4.70
2022-12-27T17:39:10.138Z,4.52
2022-12-27T17:42:14.244Z,4.53
2022-12-27T17:44:47.242Z,4.43
2022-12-27T17:47:25.888Z,4.28
2022-12-27T17:49:52.446Z,4.23
2022-12-27T17:52:37.972Z,4.20
2022-12-27T17:55:33.055Z,4.14
2022-12-27T17:58:00.263Z,4.01
2022-12-27T18:00:29.271Z,4.01
2022-12-27T18:02:55.797Z,4.06
2022-12-27T18:05:27.270Z,3.95
2022-12-27T18:08:04.307Z,4.01
2022-12-27T18:10:31.714Z,3.87
2022-12-27T18:12:59.014Z,3.82
2022-12-27T18:15:26.559Z,3.83
2022-12-27T18:17:54.209Z,3.70
2022-12-27T18:20:41.065Z,3.68
2022-12-27T18:23:08.921Z,3.64
2022-12-27T18:25:44.716Z,3.62
2022-12-27T18:28:32.578Z,3.66
2022-12-27T18:31:12.653Z,3.66
2022-12-27T18:33:58.576Z,3.79
2022-12-27T18:36:26.871Z,3.75
2022-12-27T18:38:55.715Z,3.71
2022-12-27T18:41:22.264Z,3.71
2022-12-27T18:43:49.403Z,3.81
2022-12-27T18:46:42.137Z,3.74
2022-12-27T18:49:16.540Z,3.73
2022-12-27T18:51:43.079Z,3.56
2022-12-27T18:54:28.092Z,3.55
2022-12-27T18:56:54.888Z,3.58
2022-12-27T18:59:28.843Z,3.65
2022-12-27T19:01:59.722Z,3.61
2022-12-27T19:04:35.113Z,3.58
2022-12-27T19:07:07.972Z,3.59
2022-12-27T19:09:35.895Z,3.55
2022-12-27T19:12:03.421Z,3.55
2022-12-27T19:14:34.370Z,3.46
2022-12-27T19:17:04.039Z,3.43
2022-12-27T19:19:33.638Z,3.39
2022-12-27T19:22:00.351Z,3.42
2022-12-27T19:24:27.459Z,3.38
2022-12-27T19:26:54.399Z,3.34
2022-12-27T19:29:22.974Z,3.34
2022-12-27T19:31:54.114Z,3.36
2022-12-27T19:34:20.647Z,3.26
2022-12-27T19:36:47.230Z,3.41
2022-12-27T19:39:27.795Z,3.25
2022-12-27T19:42:01.358Z,3.26
2022-12-27T19:44:28.330Z,3.24
2022-12-27T19:46:54.940Z,3.26
2022-12-27T19:49:42.579Z,3.23
2022-12-27T19:52:11.909Z,3.18
2022-12-27T19:54:38.399Z,3.14
2022-12-27T19:57:05.224Z,3.05
2022-12-27T19:59:31.838Z,3.08
2022-12-27T20:01:58.601Z,2.97
2022-12-27T20:04:25.264Z,3.01
2022-12-27T20:06:51.846Z,2.84
2022-12-27T20:09:19.298Z,2.97
2022-12-27T20:11:45.926Z,2.95
2022-12-27T20:14:14.683Z,2.94
2022-12-27T20:16:41.545Z,2.95
2022-12-27T20:19:09.171Z,2.96
2022-12-27T20:21:35.704Z,2.92
2022-12-27T20:24:02.243Z,2.97
2022-12-27T20:26:29.494Z,2.86
2022-12-27T20:28:56.008Z,2.86
2022-12-27T20:31:22.660Z,2.84
2022-12-27T20:33:52.746Z,2.86
2022-12-27T20:36:19.305Z,2.93
2022-12-27T20:38:45.840Z,2.90
2022-12-27T20:41:13.629Z,2.92
2022-12-27T20:43:40.186Z,2.93
2022-12-27T20:46:07.518Z,2.89
2022-12-27T20:48:36.744Z,2.83
2022-12-27T20:51:10.259Z,2.72
2022-12-27T20:53:36.837Z,2.70
2022-12-27T20:56:03.940Z,2.68
2022-12-27T20:58:30.994Z,2.61
2022-12-27T21:00:57.671Z,2.60
2022-12-27T21:03:24.281Z,2.78
2022-12-27T21:05:50.837Z,2.66
2022-12-27T21:08:17.409Z,2.79
2022-12-27T21:10:44.154Z,2.64
2022-12-27T21:13:10.811Z,2.72
2022-12-27T21:15:42.194Z,2.68
2022-12-27T21:18:09.120Z,2.71
2022-12-27T21:20:35.658Z,2.75
2022-12-27T21:23:02.199Z,2.72
2022-12-27T21:25:28.751Z,2.83
2022-12-27T21:27:55.252Z,2.90
2022-12-27T21:30:21.790Z,2.92
2022-12-27T21:32:48.359Z,2.93
2022-12-27T21:35:15.009Z,2.90
2022-12-27T21:37:41.968Z,2.80
2022-12-27T21:40:08.953Z,2.89
2022-12-27T21:42:35.467Z,2.85
2022-12-27T21:45:02.020Z,2.99
2022-12-27T21:47:29.338Z,2.96
2022-12-27T21:49:56.050Z,2.91
2022-12-27T21:52:22.617Z,2.90
2022-12-27T21:54:49.263Z,2.91
2022-12-27T21:57:16.357Z,2.94
2022-12-27T21:59:42.851Z,2.97
2022-12-27T22:02:09.738Z,3.01
2022-12-27T22:04:36.318Z,2.95
2022-12-27T22:07:02.861Z,2.88
2022-12-27T22:09:29.413Z,2.90
2022-12-27T22:11:55.891Z,2.94
2022-12-27T22:14:25.559Z,2.89
2022-12-27T22:16:52.935Z,2.82
2022-12-27T22:19:19.492Z,2.72
2022-12-27T22:21:46.037Z,2.68
2022-12-27T22:24:13.174Z,2.78
2022-12-27T22:26:39.747Z,2.82
2022-12-27T22:29:07.911Z,2.86
2022-12-27T22:31:38.343Z,2.74
2022-12-27T22:34:05.191Z,2.74
2022-12-27T22:36:31.824Z,2.63
2022-12-27T22:38:58.895Z,2.64
2022-12-27T22:41:26.869Z,2.69
2022-12-27T22:43:54.328Z,2.58
2022-12-27T22:46:20.987Z,2.40
2022-12-27T22:48:51.550Z,2.42
2022-12-27T22:51:21.980Z,2.39
2022-12-27T22:53:48.943Z,2.33
2022-12-27T22:56:17.225Z,2.39
2022-12-27T22:58:43.799Z,2.47
2022-12-27T23:01:13.966Z,2.42
2022-12-27T23:03:40.852Z,2.41
2022-12-27T23:06:07.548Z,2.39
2022-12-27T23:08:34.090Z,2.40
2022-12-27T23:11:04.234Z,2.43
2022-12-27T23:13:30.742Z,2.40
2022-12-27T23:15:58.279Z,2.42
2022-12-27T23:18:25.228Z,2.54
2022-12-27T23:21:21.224Z,2.59
2022-12-27T23:23:38.396Z,2.60
2022-12-27T23:26:06.733Z,2.66
2022-12-27T23:28:40.081Z,2.67
2022-12-27T23:31:06.782Z,2.71
2022-12-27T23:33:33.712Z,2.77
2022-12-27T23:36:00.578Z,2.81
2022-12-27T23:38:32.075Z,2.85
2022-12-27T23:40:59.415Z,2.92
2022-12-27T23:46:29.657Z,2.92
2022-12-27T23:48:56.965Z,2.97
2022-12-27T23:51:23.817Z,3.00
2022-12-27T23:53:50.483Z,3.01
2022-12-27T23:56:21.229Z,3.05
2022-12-27T23:58:48.267Z,2.97
